sensor_id;sensor_type;location;lat;lon;timestamp;temperature;humidity
8002;DHT22;4046;48.774;8.732;2023-02-05T00:02:08;22.60;75.30
8002;DHT22;4046;48.774;8.732;2023-02-05T00:04:35;22.60;75.30
8002;DHT22;4046;48.774;8.732;2023-02-05T00:07:02;22.60;75.30
8002;DHT22;4046;48.774;8.732;2023-02-05T00:09:29;22.50;75.20
8002;DHT22;4046;48.774;8.732;2023-02-05T00:11:56;22.60;75.30
8002;DHT22;4046;48.774;8.732;2023-02-05T00:14:23;22.60;75.30
8002;DHT22;4046;48.774;8.732;2023-02-05T00:16:50;22.60;75.30
8002;DHT22;4046;48.774;8.732;2023-02-05T00:19:17;22.60;75.30
8002;DHT22;4046;48.774;8.732;2023-02-05T00:21:43;22.60;75.30
8002;DHT22;4046;48.774;8.732;2023-02-05T00:24:10;22.60;75.30
8002;DHT22;4046;48.774;8.732;2023-02-05T00:26:37;22.60;75.30
8002;DHT22;4046;48.774;8.732;2023-02-05T00:29:04;22.60;75.30
8002;DHT22;4046;48.774;8.732;2023-02-05T00:31:30;22.50;75.20
8002;DHT22;4046;48.774;8.732;2023-02-05T00:33:56;22.60;75.20
8002;DHT22;4046;48.774;8.732;2023-02-05T00:36:23;22.50;75.10
8002;DHT22;4046;48.774;8.732;2023-02-05T00:38:50;22.60;75.20
8002;DHT22;4046;48.774;8.732;2023-02-05T00:41:17;22.60;75.20
8002;DHT22;4046;48.774;8.732;2023-02-05T00:43:44;22.50;75.10
8002;DHT22;4046;48.774;8.732;2023-02-05T00:46:11;22.60;75.20
8002;DHT22;4046;48.774;8.732;2023-02-05T00:48:38;22.50;75.20
8002;DHT22;4046;48.774;8.732;2023-02-05T00:51:05;22.50;75.20
8002;DHT22;4046;48.774;8.732;2023-02-05T00:53:31;22.50;75.10
8002;DHT22;4046;48.774;8.732;2023-02-05T00:55:58;22.50;75.10
8002;DHT22;4046;48.774;8.732;2023-02-05T00:58:24;22.50;75.10
8002;DHT22;4046;48.774;8.732;2023-02-05T01:00:50;22.50;75.10
8002;DHT22;4046;48.774;8.732;2023-02-05T01:03:17;22.50;75.10
8002;DHT22;4046;48.774;8.732;2023-02-05T01:05:44;22.50;75.10
8002;DHT22;4046;48.774;8.732;2023-02-05T01:08:11;22.50;75.10
8002;DHT22;4046;48.774;8.732;2023-02-05T01:10:41;22.50;75.10
8002;DHT22;4046;48.774;8.732;2023-02-05T01:13:07;22.50;75.10
8002;DHT22;4046;48.774;8.732;2023-02-05T01:15:34;22.50;75.10
8002;DHT22;4046;48.774;8.732;2023-02-05T01:18:00;22.50;75.10
8002;DHT22;4046;48.774;8.732;2023-02-05T01:20:26;22.50;75.10
8002;DHT22;4046;48.774;8.732;2023-02-05T01:22:54;22.50;75.10
8002;DHT22;4046;48.774;8.732;2023-02-05T01:25:20;22.50;75.10
8002;DHT22;4046;48.774;8.732;2023-02-05T01:27:46;22.50;75.10
8002;DHT22;4046;48.774;8.732;2023-02-05T01:30:13;22.50;75.10
8002;DHT22;4046;48.774;8.732;2023-02-05T01:32:39;22.50;75.10
8002;DHT22;4046;48.774;8.732;2023-02-05T01:35:07;22.50;75.10
8002;DHT22;4046;48.774;8.732;2023-02-05T01:37:33;22.50;75.10
8002;DHT22;4046;48.774;8.732;2023-02-05T01:40:00;22.50;75.10
8002;DHT22;4046;48.774;8.732;2023-02-05T01:42:29;22.50;75.10
8002;DHT22;4046;48.774;8.732;2023-02-05T01:47:55;22.50;75.10
8002;DHT22;4046;48.774;8.732;2023-02-05T01:50:31;22.50;75.10
8002;DHT22;4046;48.774;8.732;2023-02-05T01:53:02;22.50;75.10
8002;DHT22;4046;48.774;8.732;2023-02-05T01:55:30;22.50;75.10
8002;DHT22;4046;48.774;8.732;2023-02-05T01:57:58;22.50;75.10
8002;DHT22;4046;48.774;8.732;2023-02-05T02:00:25;22.50;75.10
8002;DHT22;4046;48.774;8.732;2023-02-05T02:02:51;22.50;75.10
8002;DHT22;4046;48.774;8.732;2023-02-05T02:05:18;22.50;75.10
8002;DHT22;4046;48.774;8.732;2023-02-05T02:07:44;22.50;75.10
8002;DHT22;4046;48.774;8.732;2023-02-05T02:10:13;22.50;75.10
8002;DHT22;4046;48.774;8.732;2023-02-05T02:12:41;22.50;75.00
8002;DHT22;4046;48.774;8.732;2023-02-05T02:15:12;22.50;75.10
8002;DHT22;4046;48.774;8.732;2023-02-05T02:17:43;22.50;75.00
8002;DHT22;4046;48.774;8.732;2023-02-05T02:20:15;22.50;75.00
8002;DHT22;4046;48.774;8.732;2023-02-05T02:25:50;22.50;75.00
8002;DHT22;4046;48.774;8.732;2023-02-05T02:31:12;22.50;75.00
8002;DHT22;4046;48.774;8.732;2023-02-05T02:33:59;22.50;75.00
8002;DHT22;4046;48.774;8.732;2023-02-05T02:36:57;22.50;75.00
8002;DHT22;4046;48.774;8.732;2023-02-05T02:42:09;22.50;75.00
8002;DHT22;4046;48.774;8.732;2023-02-05T02:44:50;22.40;75.00
8002;DHT22;4046;48.774;8.732;2023-02-05T02:47:21;22.50;75.10
8002;DHT22;4046;48.774;8.732;2023-02-05T02:49:54;22.50;75.00
8002;DHT22;4046;48.774;8.732;2023-02-05T02:52:23;22.50;75.00
8002;DHT22;4046;48.774;8.732;2023-02-05T02:54:53;22.50;75.00
8002;DHT22;4046;48.774;8.732;2023-02-05T02:57:22;22.50;75.00
8002;DHT22;4046;48.774;8.732;2023-02-05T02:59:51;22.50;75.00
8002;DHT22;4046;48.774;8.732;2023-02-05T03:02:18;22.50;75.00
8002;DHT22;4046;48.774;8.732;2023-02-05T03:04:49;22.50;75.80
8002;DHT22;4046;48.774;8.732;2023-02-05T03:07:36;22.50;75.00
8002;DHT22;4046;48.774;8.732;2023-02-05T03:10:13;22.40;75.00
8002;DHT22;4046;48.774;8.732;2023-02-05T03:12:41;22.50;75.00
8002;DHT22;4046;48.774;8.732;2023-02-05T03:15:08;22.50;75.00
8002;DHT22;4046;48.774;8.732;2023-02-05T03:17:35;22.50;75.00
8002;DHT22;4046;48.774;8.732;2023-02-05T03:20:18;22.50;75.00
8002;DHT22;4046;48.774;8.732;2023-02-05T03:22:47;22.50;75.00
8002;DHT22;4046;48.774;8.732;2023-02-05T03:25:15;22.50;75.00
8002;DHT22;4046;48.774;8.732;2023-02-05T03:27:44;22.50;75.00
8002;DHT22;4046;48.774;8.732;2023-02-05T03:30:10;22.50;75.00
8002;DHT22;4046;48.774;8.732;2023-02-05T03:32:45;22.40;74.90
8002;DHT22;4046;48.774;8.732;2023-02-05T03:35:35;22.50;75.00
8002;DHT22;4046;48.774;8.732;2023-02-05T03:40:55;22.40;74.90
8002;DHT22;4046;48.774;8.732;2023-02-05T03:48:38;22.40;74.90
8002;DHT22;4046;48.774;8.732;2023-02-05T03:51:21;22.50;75.00
8002;DHT22;4046;48.774;8.732;2023-02-05T03:54:06;22.50;75.00
8002;DHT22;4046;48.774;8.732;2023-02-05T03:59:27;22.40;74.80
8002;DHT22;4046;48.774;8.732;2023-02-05T04:01:55;22.50;74.90
8002;DHT22;4046;48.774;8.732;2023-02-05T04:04:21;22.40;74.90
8002;DHT22;4046;48.774;8.732;2023-02-05T04:06:50;22.40;74.90
8002;DHT22;4046;48.774;8.732;2023-02-05T04:09:17;22.40;74.90
8002;DHT22;4046;48.774;8.732;2023-02-05T04:11:43;22.40;74.80
8002;DHT22;4046;48.774;8.732;2023-02-05T04:14:09;22.50;74.90
8002;DHT22;4046;48.774;8.732;2023-02-05T04:16:36;22.50;74.90
8002;DHT22;4046;48.774;8.732;2023-02-05T04:19:02;22.50;74.90
8002;DHT22;4046;48.774;8.732;2023-02-05T04:21:28;22.40;74.80
8002;DHT22;4046;48.774;8.732;2023-02-05T04:23:55;22.50;74.90
8002;DHT22;4046;48.774;8.732;2023-02-05T04:26:21;22.50;74.90
8002;DHT22;4046;48.774;8.732;2023-02-05T04:28:48;22.50;74.90
8002;DHT22;4046;48.774;8.732;2023-02-05T04:31:14;22.50;74.90
8002;DHT22;4046;48.774;8.732;2023-02-05T04:33:40;22.50;74.90
8002;DHT22;4046;48.774;8.732;2023-02-05T04:36:07;22.40;74.70
8002;DHT22;4046;48.774;8.732;2023-02-05T04:38:34;22.40;74.80
8002;DHT22;4046;48.774;8.732;2023-02-05T04:41:00;22.50;74.80
8002;DHT22;4046;48.774;8.732;2023-02-05T04:43:26;22.50;74.90
8002;DHT22;4046;48.774;8.732;2023-02-05T04:45:52;22.50;74.90
8002;DHT22;4046;48.774;8.732;2023-02-05T04:48:18;22.40;74.70
8002;DHT22;4046;48.774;8.732;2023-02-05T04:50:46;22.50;74.80
8002;DHT22;4046;48.774;8.732;2023-02-05T04:53:12;22.40;74.70
8002;DHT22;4046;48.774;8.732;2023-02-05T04:55:39;22.50;74.80
8002;DHT22;4046;48.774;8.732;2023-02-05T04:58:05;22.50;74.80
8002;DHT22;4046;48.774;8.732;2023-02-05T05:00:31;22.40;74.70
8002;DHT22;4046;48.774;8.732;2023-02-05T05:02:57;22.50;74.80
8002;DHT22;4046;48.774;8.732;2023-02-05T05:05:24;22.40;74.70
8002;DHT22;4046;48.774;8.732;2023-02-05T05:07:50;22.40;74.70
8002;DHT22;4046;48.774;8.732;2023-02-05T05:10:16;22.50;74.80
8002;DHT22;4046;48.774;8.732;2023-02-05T05:12:42;22.50;75.60
8002;DHT22;4046;48.774;8.732;2023-02-05T05:15:08;22.40;74.60
8002;DHT22;4046;48.774;8.732;2023-02-05T05:17:35;22.40;74.60
8002;DHT22;4046;48.774;8.732;2023-02-05T05:20:01;22.50;74.70
8002;DHT22;4046;48.774;8.732;2023-02-05T05:22:27;22.40;74.60
8002;DHT22;4046;48.774;8.732;2023-02-05T05:24:54;22.50;74.70
8002;DHT22;4046;48.774;8.732;2023-02-05T05:27:20;22.40;74.70
8002;DHT22;4046;48.774;8.732;2023-02-05T05:29:48;22.40;74.60
8002;DHT22;4046;48.774;8.732;2023-02-05T05:32:14;22.40;74.60
8002;DHT22;4046;48.774;8.732;2023-02-05T05:34:40;22.40;74.60
8002;DHT22;4046;48.774;8.732;2023-02-05T05:37:06;22.40;74.60
8002;DHT22;4046;48.774;8.732;2023-02-05T05:39:32;22.40;74.60
8002;DHT22;4046;48.774;8.732;2023-02-05T05:42:17;22.50;74.70
8002;DHT22;4046;48.774;8.732;2023-02-05T05:45:02;22.40;74.60
8002;DHT22;4046;48.774;8.732;2023-02-05T05:47:29;22.40;74.60
8002;DHT22;4046;48.774;8.732;2023-02-05T05:49:55;22.40;74.60
8002;DHT22;4046;48.774;8.732;2023-02-05T05:52:23;22.40;74.60
8002;DHT22;4046;48.774;8.732;2023-02-05T05:54:49;22.50;74.70
8002;DHT22;4046;48.774;8.732;2023-02-05T05:57:15;22.40;74.60
8002;DHT22;4046;48.774;8.732;2023-02-05T05:59:41;22.40;74.60
8002;DHT22;4046;48.774;8.732;2023-02-05T06:02:07;22.40;74.60
8002;DHT22;4046;48.774;8.732;2023-02-05T06:04:33;22.40;74.60
8002;DHT22;4046;48.774;8.732;2023-02-05T06:07:00;22.40;74.60
8002;DHT22;4046;48.774;8.732;2023-02-05T06:09:27;22.40;74.60
8002;DHT22;4046;48.774;8.732;2023-02-05T06:11:53;22.40;74.60
8002;DHT22;4046;48.774;8.732;2023-02-05T06:14:20;22.50;74.60
8002;DHT22;4046;48.774;8.732;2023-02-05T06:16:46;22.40;74.60
8002;DHT22;4046;48.774;8.732;2023-02-05T06:19:13;22.40;74.60
8002;DHT22;4046;48.774;8.732;2023-02-05T06:21:39;22.40;74.60
8002;DHT22;4046;48.774;8.732;2023-02-05T06:24:05;22.40;74.60
8002;DHT22;4046;48.774;8.732;2023-02-05T06:26:31;22.40;74.50
8002;DHT22;4046;48.774;8.732;2023-02-05T06:28:57;22.40;74.60
8002;DHT22;4046;48.774;8.732;2023-02-05T06:31:29;22.40;74.50
8002;DHT22;4046;48.774;8.732;2023-02-05T06:33:55;22.40;74.60
8002;DHT22;4046;48.774;8.732;2023-02-05T06:36:22;22.40;74.50
8002;DHT22;4046;48.774;8.732;2023-02-05T06:38:48;22.40;74.50
8002;DHT22;4046;48.774;8.732;2023-02-05T06:41:14;22.40;74.50
8002;DHT22;4046;48.774;8.732;2023-02-05T06:43:40;22.40;74.50
8002;DHT22;4046;48.774;8.732;2023-02-05T06:46:06;22.40;74.50
8002;DHT22;4046;48.774;8.732;2023-02-05T06:48:32;22.40;74.50
8002;DHT22;4046;48.774;8.732;2023-02-05T06:50:59;22.40;74.50
8002;DHT22;4046;48.774;8.732;2023-02-05T06:53:25;22.40;74.50
8002;DHT22;4046;48.774;8.732;2023-02-05T06:55:51;22.40;74.50
8002;DHT22;4046;48.774;8.732;2023-02-05T06:58:17;22.40;74.50
8002;DHT22;4046;48.774;8.732;2023-02-05T07:00:43;22.40;74.50
8002;DHT22;4046;48.774;8.732;2023-02-05T07:03:10;22.40;74.40
8002;DHT22;4046;48.774;8.732;2023-02-05T07:05:36;22.40;74.40
8002;DHT22;4046;48.774;8.732;2023-02-05T07:08:02;22.50;74.50
8002;DHT22;4046;48.774;8.732;2023-02-05T07:10:30;22.40;74.40
8002;DHT22;4046;48.774;8.732;2023-02-05T07:12:56;22.40;74.40
8002;DHT22;4046;48.774;8.732;2023-02-05T07:15:24;22.40;74.40
8002;DHT22;4046;48.774;8.732;2023-02-05T07:17:50;22.40;74.40
8002;DHT22;4046;48.774;8.732;2023-02-05T07:20:16;22.40;74.40
8002;DHT22;4046;48.774;8.732;2023-02-05T07:22:43;22.40;74.40
8002;DHT22;4046;48.774;8.732;2023-02-05T07:25:12;22.40;74.40
8002;DHT22;4046;48.774;8.732;2023-02-05T07:27:38;22.40;74.40
8002;DHT22;4046;48.774;8.732;2023-02-05T07:30:05;22.40;74.40
8002;DHT22;4046;48.774;8.732;2023-02-05T07:32:31;22.40;74.40
8002;DHT22;4046;48.774;8.732;2023-02-05T07:34:57;22.40;74.40
8002;DHT22;4046;48.774;8.732;2023-02-05T07:37:23;22.40;74.40
8002;DHT22;4046;48.774;8.732;2023-02-05T07:39:49;22.40;74.40
8002;DHT22;4046;48.774;8.732;2023-02-05T07:42:16;22.40;74.40
8002;DHT22;4046;48.774;8.732;2023-02-05T07:44:42;22.40;74.30
8002;DHT22;4046;48.774;8.732;2023-02-05T07:47:08;22.40;74.40
8002;DHT22;4046;48.774;8.732;2023-02-05T07:49:34;22.40;74.40
8002;DHT22;4046;48.774;8.732;2023-02-05T07:52:00;22.50;74.50
8002;DHT22;4046;48.774;8.732;2023-02-05T07:54:27;22.20;74.20
8002;DHT22;4046;48.774;8.732;2023-02-05T07:56:53;22.30;74.40
8002;DHT22;4046;48.774;8.732;2023-02-05T07:59:20;22.30;74.40
8002;DHT22;4046;48.774;8.732;2023-02-05T08:01:46;22.30;74.50
8002;DHT22;4046;48.774;8.732;2023-02-05T08:04:12;22.20;74.40
8002;DHT22;4046;48.774;8.732;2023-02-05T08:06:38;22.20;74.40
8002;DHT22;4046;48.774;8.732;2023-02-05T08:09:04;22.20;74.40
8002;DHT22;4046;48.774;8.732;2023-02-05T08:11:31;22.20;74.50
8002;DHT22;4046;48.774;8.732;2023-02-05T08:13:57;22.10;74.40
8002;DHT22;4046;48.774;8.732;2023-02-05T08:16:23;22.10;74.40
8002;DHT22;4046;48.774;8.732;2023-02-05T08:18:50;22.10;74.40
8002;DHT22;4046;48.774;8.732;2023-02-05T08:21:17;22.10;74.40
8002;DHT22;4046;48.774;8.732;2023-02-05T08:23:44;22.10;74.40
8002;DHT22;4046;48.774;8.732;2023-02-05T08:26:10;22.10;74.40
8002;DHT22;4046;48.774;8.732;2023-02-05T08:28:36;22.10;74.40
8002;DHT22;4046;48.774;8.732;2023-02-05T08:31:12;22.10;74.30
8002;DHT22;4046;48.774;8.732;2023-02-05T08:33:38;22.10;74.40
8002;DHT22;4046;48.774;8.732;2023-02-05T08:36:05;22.10;74.30
8002;DHT22;4046;48.774;8.732;2023-02-05T08:38:32;22.10;74.30
8002;DHT22;4046;48.774;8.732;2023-02-05T08:40:58;22.10;74.40
8002;DHT22;4046;48.774;8.732;2023-02-05T08:43:28;22.10;74.30
8002;DHT22;4046;48.774;8.732;2023-02-05T08:45:54;22.10;74.30
8002;DHT22;4046;48.774;8.732;2023-02-05T08:48:20;22.10;74.30
8002;DHT22;4046;48.774;8.732;2023-02-05T08:50:47;22.10;74.30
8002;DHT22;4046;48.774;8.732;2023-02-05T08:53:14;22.10;74.30
8002;DHT22;4046;48.774;8.732;2023-02-05T08:55:40;22.10;74.20
8002;DHT22;4046;48.774;8.732;2023-02-05T08:58:06;22.00;74.20
8002;DHT22;4046;48.774;8.732;2023-02-05T09:00:32;22.10;74.30
8002;DHT22;4046;48.774;8.732;2023-02-05T09:03:02;22.10;74.30
8002;DHT22;4046;48.774;8.732;2023-02-05T09:05:29;22.00;74.10
8002;DHT22;4046;48.774;8.732;2023-02-05T09:07:55;22.00;74.10
8002;DHT22;4046;48.774;8.732;2023-02-05T09:10:21;22.00;74.10
8002;DHT22;4046;48.774;8.732;2023-02-05T09:12:47;22.00;74.10
8002;DHT22;4046;48.774;8.732;2023-02-05T09:15:13;22.00;74.20
8002;DHT22;4046;48.774;8.732;2023-02-05T09:17:39;22.00;74.10
8002;DHT22;4046;48.774;8.732;2023-02-05T09:20:06;22.00;74.20
8002;DHT22;4046;48.774;8.732;2023-02-05T09:22:32;22.00;74.20
8002;DHT22;4046;48.774;8.732;2023-02-05T09:24:58;22.00;74.20
8002;DHT22;4046;48.774;8.732;2023-02-05T09:27:24;22.00;74.20
8002;DHT22;4046;48.774;8.732;2023-02-05T09:29:51;22.00;74.20
8002;DHT22;4046;48.774;8.732;2023-02-05T09:32:17;22.00;74.10
8002;DHT22;4046;48.774;8.732;2023-02-05T09:34:43;22.00;74.20
8002;DHT22;4046;48.774;8.732;2023-02-05T09:37:09;22.00;74.20
8002;DHT22;4046;48.774;8.732;2023-02-05T09:39:35;22.00;74.20
8002;DHT22;4046;48.774;8.732;2023-02-05T09:42:34;22.00;74.20
8002;DHT22;4046;48.774;8.732;2023-02-05T09:48:01;22.00;74.20
8002;DHT22;4046;48.774;8.732;2023-02-05T09:50:33;21.90;74.10
8002;DHT22;4046;48.774;8.732;2023-02-05T09:53:02;21.90;74.10
8002;DHT22;4046;48.774;8.732;2023-02-05T09:55:36;21.90;74.10
8002;DHT22;4046;48.774;8.732;2023-02-05T09:58:12;21.90;74.10
8002;DHT22;4046;48.774;8.732;2023-02-05T10:00:48;21.90;74.10
8002;DHT22;4046;48.774;8.732;2023-02-05T10:03:30;21.90;74.10
8002;DHT22;4046;48.774;8.732;2023-02-05T10:06:05;21.90;74.10
8002;DHT22;4046;48.774;8.732;2023-02-05T10:11:36;22.00;74.10
8002;DHT22;4046;48.774;8.732;2023-02-05T10:14:25;21.90;74.00
8002;DHT22;4046;48.774;8.732;2023-02-05T10:25:38;21.90;74.00
8002;DHT22;4046;48.774;8.732;2023-02-05T10:28:23;21.90;74.00
8002;DHT22;4046;48.774;8.732;2023-02-05T10:30:56;21.90;74.00
8002;DHT22;4046;48.774;8.732;2023-02-05T10:33:47;21.90;74.00
8002;DHT22;4046;48.774;8.732;2023-02-05T10:36:13;21.90;74.00
8002;DHT22;4046;48.774;8.732;2023-02-05T10:38:44;21.90;74.00
8002;DHT22;4046;48.774;8.732;2023-02-05T10:41:20;21.90;74.00
8002;DHT22;4046;48.774;8.732;2023-02-05T10:46:41;21.90;74.00
8002;DHT22;4046;48.774;8.732;2023-02-05T10:49:27;21.90;74.00
8002;DHT22;4046;48.774;8.732;2023-02-05T10:51:57;21.90;73.90
8002;DHT22;4046;48.774;8.732;2023-02-05T10:54:29;21.90;73.90
8002;DHT22;4046;48.774;8.732;2023-02-05T10:56:57;21.90;73.90
8002;DHT22;4046;48.774;8.732;2023-02-05T10:59:27;21.90;73.90
8002;DHT22;4046;48.774;8.732;2023-02-05T11:01:56;21.90;73.90
8002;DHT22;4046;48.774;8.732;2023-02-05T11:04:56;21.90;73.90
8002;DHT22;4046;48.774;8.732;2023-02-05T11:07:36;21.90;73.90
8002;DHT22;4046;48.774;8.732;2023-02-05T11:10:16;21.90;73.90
8002;DHT22;4046;48.774;8.732;2023-02-05T11:12:44;21.90;73.90
8002;DHT22;4046;48.774;8.732;2023-02-05T11:15:23;21.90;73.90
8002;DHT22;4046;48.774;8.732;2023-02-05T11:17:53;21.90;73.90
8002;DHT22;4046;48.774;8.732;2023-02-05T11:23:17;21.90;73.90
8002;DHT22;4046;48.774;8.732;2023-02-05T11:25:56;21.90;73.90
8002;DHT22;4046;48.774;8.732;2023-02-05T11:28:26;21.90;73.90
8002;DHT22;4046;48.774;8.732;2023-02-05T11:30:53;21.90;73.90
8002;DHT22;4046;48.774;8.732;2023-02-05T11:35:55;21.90;73.90
8002;DHT22;4046;48.774;8.732;2023-02-05T11:38:50;21.90;73.90
8002;DHT22;4046;48.774;8.732;2023-02-05T11:41:37;21.90;73.90
8002;DHT22;4046;48.774;8.732;2023-02-05T11:44:26;21.90;73.90
8002;DHT22;4046;48.774;8.732;2023-02-05T11:46:54;21.90;73.90
8002;DHT22;4046;48.774;8.732;2023-02-05T11:49:42;21.90;73.90
8002;DHT22;4046;48.774;8.732;2023-02-05T11:52:12;21.90;73.90
8002;DHT22;4046;48.774;8.732;2023-02-05T11:54:44;21.90;73.90
8002;DHT22;4046;48.774;8.732;2023-02-05T12:02:42;21.90;73.90
8002;DHT22;4046;48.774;8.732;2023-02-05T12:21:47;21.90;73.80
8002;DHT22;4046;48.774;8.732;2023-02-05T12:30:41;21.90;73.80
8002;DHT22;4046;48.774;8.732;2023-02-05T12:33:29;21.90;73.80
8002;DHT22;4046;48.774;8.732;2023-02-05T12:36:07;21.90;73.90
8002;DHT22;4046;48.774;8.732;2023-02-05T12:41:38;21.90;73.80
8002;DHT22;4046;48.774;8.732;2023-02-05T12:46:52;21.90;73.90
8002;DHT22;4046;48.774;8.732;2023-02-05T12:54:57;21.90;73.90
8002;DHT22;4046;48.774;8.732;2023-02-05T13:00:08;21.80;73.80
8002;DHT22;4046;48.774;8.732;2023-02-05T13:02:46;21.80;73.80
8002;DHT22;4046;48.774;8.732;2023-02-05T13:05:28;21.80;73.80
8002;DHT22;4046;48.774;8.732;2023-02-05T13:16:46;21.90;73.90
8002;DHT22;4046;48.774;8.732;2023-02-05T13:19:23;21.90;73.90
8002;DHT22;4046;48.774;8.732;2023-02-05T13:21:54;21.80;73.80
8002;DHT22;4046;48.774;8.732;2023-02-05T13:24:49;21.80;73.80
8002;DHT22;4046;48.774;8.732;2023-02-05T13:27:41;21.80;73.80
8002;DHT22;4046;48.774;8.732;2023-02-05T13:30:38;21.80;73.80
8002;DHT22;4046;48.774;8.732;2023-02-05T13:33:07;21.80;73.80
8002;DHT22;4046;48.774;8.732;2023-02-05T13:35:40;21.80;73.80
8002;DHT22;4046;48.774;8.732;2023-02-05T13:39:30;21.80;73.80
8002;DHT22;4046;48.774;8.732;2023-02-05T13:50:16;21.80;73.80
8002;DHT22;4046;48.774;8.732;2023-02-05T13:56:16;21.80;73.80
8002;DHT22;4046;48.774;8.732;2023-02-05T13:59:03;21.80;73.80
8002;DHT22;4046;48.774;8.732;2023-02-05T14:01:48;21.80;73.80
8002;DHT22;4046;48.774;8.732;2023-02-05T14:07:02;21.80;73.80
8002;DHT22;4046;48.774;8.732;2023-02-05T14:09:39;21.80;73.80
8002;DHT22;4046;48.774;8.732;2023-02-05T14:12:11;21.80;73.80
8002;DHT22;4046;48.774;8.732;2023-02-05T14:22:53;21.80;73.80
8002;DHT22;4046;48.774;8.732;2023-02-05T14:28:02;21.80;73.90
8002;DHT22;4046;48.774;8.732;2023-02-05T14:32:56;21.70;73.70
8002;DHT22;4046;48.774;8.732;2023-02-05T14:35:30;21.70;73.70
8002;DHT22;4046;48.774;8.732;2023-02-05T14:38:42;21.80;73.80
8002;DHT22;4046;48.774;8.732;2023-02-05T14:41:18;21.80;73.80
8002;DHT22;4046;48.774;8.732;2023-02-05T14:43:54;21.80;73.80
8002;DHT22;4046;48.774;8.732;2023-02-05T14:47:02;21.80;73.80
8002;DHT22;4046;48.774;8.732;2023-02-05T14:49:39;21.80;73.80
8002;DHT22;4046;48.774;8.732;2023-02-05T14:52:25;21.70;73.70
8002;DHT22;4046;48.774;8.732;2023-02-05T14:55:36;21.80;73.80
8002;DHT22;4046;48.774;8.732;2023-02-05T14:58:22;21.80;73.80
8002;DHT22;4046;48.774;8.732;2023-02-05T15:00:49;21.80;73.80
8002;DHT22;4046;48.774;8.732;2023-02-05T15:03:22;21.80;73.80
8002;DHT22;4046;48.774;8.732;2023-02-05T15:06:06;21.80;73.80
8002;DHT22;4046;48.774;8.732;2023-02-05T15:13:31;21.80;73.80
8002;DHT22;4046;48.774;8.732;2023-02-05T15:16:16;21.80;73.80
8002;DHT22;4046;48.774;8.732;2023-02-05T15:21:59;21.80;73.80
8002;DHT22;4046;48.774;8.732;2023-02-05T15:24:16;21.70;73.70
8002;DHT22;4046;48.774;8.732;2023-02-05T15:29:39;21.80;73.80
8002;DHT22;4046;48.774;8.732;2023-02-05T15:32:16;21.80;73.80
8002;DHT22;4046;48.774;8.732;2023-02-05T15:35:14;21.80;73.80
8002;DHT22;4046;48.774;8.732;2023-02-05T15:37:44;21.80;73.80
8002;DHT22;4046;48.774;8.732;2023-02-05T15:40:17;21.80;73.80
8002;DHT22;4046;48.774;8.732;2023-02-05T15:42:46;21.80;73.80
8002;DHT22;4046;48.774;8.732;2023-02-05T15:50:26;21.80;73.80
8002;DHT22;4046;48.774;8.732;2023-02-05T15:52:53;21.90;73.90
8002;DHT22;4046;48.774;8.732;2023-02-05T15:55:21;21.90;73.80
8002;DHT22;4046;48.774;8.732;2023-02-05T15:57:49;22.00;73.80
8002;DHT22;4046;48.774;8.732;2023-02-05T16:00:23;22.00;73.80
8002;DHT22;4046;48.774;8.732;2023-02-05T16:02:55;22.00;73.70
8002;DHT22;4046;48.774;8.732;2023-02-05T16:05:24;22.10;73.80
8002;DHT22;4046;48.774;8.732;2023-02-05T16:07:51;22.10;73.80
8002;DHT22;4046;48.774;8.732;2023-02-05T16:10:24;22.10;73.70
8002;DHT22;4046;48.774;8.732;2023-02-05T16:15:30;22.10;73.70
8002;DHT22;4046;48.774;8.732;2023-02-05T16:18:00;22.20;73.70
8002;DHT22;4046;48.774;8.732;2023-02-05T16:20:36;22.20;73.70
8002;DHT22;4046;48.774;8.732;2023-02-05T16:23:07;22.30;73.80
8002;DHT22;4046;48.774;8.732;2023-02-05T16:28:27;22.30;73.70
8002;DHT22;4046;48.774;8.732;2023-02-05T16:30:58;22.30;73.70
8002;DHT22;4046;48.774;8.732;2023-02-05T16:33:37;22.30;73.60
8002;DHT22;4046;48.774;8.732;2023-02-05T16:36:12;22.30;73.60
8002;DHT22;4046;48.774;8.732;2023-02-05T16:38:40;22.40;73.80
8002;DHT22;4046;48.774;8.732;2023-02-05T16:41:27;22.40;73.70
8002;DHT22;4046;48.774;8.732;2023-02-05T16:43:57;22.40;73.70
8002;DHT22;4046;48.774;8.732;2023-02-05T16:46:27;22.40;73.70
8002;DHT22;4046;48.774;8.732;2023-02-05T16:48:59;22.40;73.70
8002;DHT22;4046;48.774;8.732;2023-02-05T16:51:50;22.40;73.70
8002;DHT22;4046;48.774;8.732;2023-02-05T16:56:49;22.40;73.70
8002;DHT22;4046;48.774;8.732;2023-02-05T17:02:18;22.50;73.80
8002;DHT22;4046;48.774;8.732;2023-02-05T17:04:50;22.50;73.70
8002;DHT22;4046;48.774;8.732;2023-02-05T17:07:18;22.50;73.70
8002;DHT22;4046;48.774;8.732;2023-02-05T17:09:45;22.50;73.70
8002;DHT22;4046;48.774;8.732;2023-02-05T17:17:19;22.50;73.70
8002;DHT22;4046;48.774;8.732;2023-02-05T17:28:12;22.50;73.70
8002;DHT22;4046;48.774;8.732;2023-02-05T17:30:40;22.50;73.70
8002;DHT22;4046;48.774;8.732;2023-02-05T17:33:08;22.50;73.70
8002;DHT22;4046;48.774;8.732;2023-02-05T17:35:34;22.50;73.70
8002;DHT22;4046;48.774;8.732;2023-02-05T17:38:00;22.50;73.70
8002;DHT22;4046;48.774;8.732;2023-02-05T17:40:27;22.50;73.70
8002;DHT22;4046;48.774;8.732;2023-02-05T17:42:53;22.50;73.70
8002;DHT22;4046;48.774;8.732;2023-02-05T17:45:22;22.50;73.70
8002;DHT22;4046;48.774;8.732;2023-02-05T17:47:49;22.50;73.70
8002;DHT22;4046;48.774;8.732;2023-02-05T17:50:15;22.50;73.70
8002;DHT22;4046;48.774;8.732;2023-02-05T17:52:43;22.50;73.70
8002;DHT22;4046;48.774;8.732;2023-02-05T17:55:12;22.50;73.70
8002;DHT22;4046;48.774;8.732;2023-02-05T17:57:40;22.50;73.70
8002;DHT22;4046;48.774;8.732;2023-02-05T18:00:14;22.50;73.60
8002;DHT22;4046;48.774;8.732;2023-02-05T18:02:40;22.50;73.70
8002;DHT22;4046;48.774;8.732;2023-02-05T18:05:06;22.50;73.70
8002;DHT22;4046;48.774;8.732;2023-02-05T18:07:54;22.50;73.70
8002;DHT22;4046;48.774;8.732;2023-02-05T18:10:24;22.50;73.70
8002;DHT22;4046;48.774;8.732;2023-02-05T18:12:51;22.50;73.70
8002;DHT22;4046;48.774;8.732;2023-02-05T18:15:18;22.50;73.70
8002;DHT22;4046;48.774;8.732;2023-02-05T18:17:45;22.50;73.70
8002;DHT22;4046;48.774;8.732;2023-02-05T18:20:11;22.50;73.70
8002;DHT22;4046;48.774;8.732;2023-02-05T18:22:38;22.50;73.70
8002;DHT22;4046;48.774;8.732;2023-02-05T18:25:05;22.50;73.70
8002;DHT22;4046;48.774;8.732;2023-02-05T18:27:32;22.50;73.70
8002;DHT22;4046;48.774;8.732;2023-02-05T18:29:58;22.50;73.70
8002;DHT22;4046;48.774;8.732;2023-02-05T18:32:24;22.50;73.70
8002;DHT22;4046;48.774;8.732;2023-02-05T18:34:50;22.50;73.70
8002;DHT22;4046;48.774;8.732;2023-02-05T18:37:17;22.50;73.70
8002;DHT22;4046;48.774;8.732;2023-02-05T18:39:44;22.50;73.70
8002;DHT22;4046;48.774;8.732;2023-02-05T18:42:10;22.60;73.80
8002;DHT22;4046;48.774;8.732;2023-02-05T18:44:37;22.50;73.70
8002;DHT22;4046;48.774;8.732;2023-02-05T18:47:04;22.60;73.80
8002;DHT22;4046;48.774;8.732;2023-02-05T18:49:31;22.60;73.80
8002;DHT22;4046;48.774;8.732;2023-02-05T18:51:58;22.60;73.90
8002;DHT22;4046;48.774;8.732;2023-02-05T18:54:24;22.60;73.80
8002;DHT22;4046;48.774;8.732;2023-02-05T18:56:50;22.60;73.80
8002;DHT22;4046;48.774;8.732;2023-02-05T18:59:19;22.60;73.80
8002;DHT22;4046;48.774;8.732;2023-02-05T19:01:49;22.50;73.70
8002;DHT22;4046;48.774;8.732;2023-02-05T19:04:16;22.50;73.70
8002;DHT22;4046;48.774;8.732;2023-02-05T19:06:45;22.50;73.70
8002;DHT22;4046;48.774;8.732;2023-02-05T19:09:20;22.60;73.80